createdAt,value
2019-03-20T00:02:24.297Z,99.90
2019-03-20T00:07:21.791Z,99.90
2019-03-20T00:09:50.855Z,99.90
2019-03-20T00:12:19.969Z,99.90
2019-03-20T00:14:49.165Z,99.90
2019-03-20T00:17:18.264Z,99.90
2019-03-20T00:22:15.793Z,99.90
2019-03-20T00:24:44.762Z,99.90
2019-03-20T00:27:13.784Z,99.90
2019-03-20T00:29:42.685Z,99.90
2019-03-20T00:32:11.605Z,99.90
2019-03-20T00:34:40.624Z,99.90
2019-03-20T00:37:09.832Z,99.90
2019-03-20T00:39:38.713Z,99.90
2019-03-20T00:42:07.735Z,99.90
2019-03-20T00:44:36.593Z,99.90
2019-03-20T00:47:05.690Z,99.90
2019-03-20T00:49:34.687Z,99.90
2019-03-20T00:54:32.205Z,99.90
2019-03-20T00:57:01.259Z,99.90
2019-03-20T00:59:30.236Z,99.90
2019-03-20T01:04:27.837Z,99.90
2019-03-20T01:06:56.779Z,99.90
2019-03-20T01:09:25.664Z,99.90
2019-03-20T01:11:54.862Z,99.90
2019-03-20T01:16:52.379Z,99.90
2019-03-20T01:19:21.193Z,99.90
2019-03-20T01:21:50.235Z,99.90
2019-03-20T01:24:19.045Z,99.90
2019-03-20T01:26:47.966Z,99.90
2019-03-20T01:29:16.862Z,99.90
2019-03-20T01:31:45.852Z,99.90
2019-03-20T01:34:14.928Z,99.90
2019-03-20T01:39:12.537Z,99.90
2019-03-20T01:41:41.553Z,99.90
2019-03-20T01:44:10.485Z,99.90
2019-03-20T01:49:07.892Z,99.90
2019-03-20T01:51:36.771Z,99.90
2019-03-20T01:54:05.873Z,99.90
2019-03-20T01:56:34.876Z,99.90
2019-03-20T02:01:32.492Z,99.90
2019-03-20T02:08:58.751Z,99.90
2019-03-20T02:11:27.657Z,99.90
2019-03-20T02:13:56.580Z,99.90
2019-03-20T02:21:22.541Z,99.90
2019-03-20T02:23:51.725Z,99.90
2019-03-20T02:26:20.615Z,99.90
2019-03-20T02:28:49.691Z,99.90
2019-03-20T02:31:18.656Z,99.90
2019-03-20T02:33:47.746Z,99.90
2019-03-20T02:36:16.645Z,99.90
2019-03-20T02:38:45.531Z,99.90
2019-03-20T02:43:43.396Z,99.90
2019-03-20T02:46:12.367Z,99.90
2019-03-20T02:48:41.409Z,99.90
2019-03-20T02:51:10.461Z,99.90
2019-03-20T02:53:39.517Z,99.90
2019-03-20T02:56:08.533Z,99.90
2019-03-20T03:01:06.021Z,99.90
2019-03-20T03:03:34.959Z,99.90
2019-03-20T03:08:34.232Z,99.90
2019-03-20T03:11:03.277Z,99.90
2019-03-20T03:13:32.237Z,99.90
2019-03-20T03:16:01.258Z,99.90
2019-03-20T03:18:30.237Z,99.90
2019-03-20T03:20:59.176Z,99.90
2019-03-20T03:23:28.148Z,99.90
2019-03-20T03:25:57.045Z,99.90
2019-03-20T03:28:25.969Z,99.90
2019-03-20T03:30:54.946Z,99.90
2019-03-20T03:35:52.512Z,99.90
2019-03-20T03:38:21.494Z,99.90
2019-03-20T03:40:50.469Z,99.90
2019-03-20T03:43:19.460Z,99.90
2019-03-20T03:45:48.577Z,99.90
2019-03-20T03:48:17.657Z,99.90
2019-03-20T03:50:48.284Z,99.90
2019-03-20T04:00:43.393Z,99.90
2019-03-20T04:03:12.572Z,99.90
2019-03-20T04:05:41.450Z,99.90
2019-03-20T04:08:10.500Z,99.90
2019-03-20T04:10:39.398Z,99.90
2019-03-20T04:13:08.365Z,99.90
2019-03-20T04:15:37.453Z,99.90
2019-03-20T04:18:06.486Z,99.90
2019-03-20T04:23:03.910Z,99.90
2019-03-20T04:25:32.872Z,99.90
2019-03-20T04:28:01.862Z,99.90
2019-03-20T04:30:31.146Z,99.90
2019-03-20T04:33:00.252Z,99.90
2019-03-20T04:37:57.775Z,99.90
2019-03-20T04:40:26.791Z,99.90
2019-03-20T04:47:52.729Z,99.90
2019-03-20T04:50:21.937Z,99.90
2019-03-20T04:52:50.969Z,99.90
2019-03-20T04:55:19.936Z,99.90
2019-03-20T04:57:48.875Z,99.90
2019-03-20T05:00:17.861Z,99.90
2019-03-20T05:02:46.816Z,99.90
2019-03-20T05:10:14.721Z,99.90
2019-03-20T05:12:43.693Z,99.90
2019-03-20T05:15:13.296Z,99.90
2019-03-20T05:22:39.833Z,99.90
2019-03-20T05:25:08.981Z,99.90
2019-03-20T05:27:39.241Z,99.90
2019-03-20T05:30:08.940Z,99.90
2019-03-20T05:32:37.845Z,99.90
2019-03-20T05:35:07.200Z,99.90
2019-03-20T05:37:36.173Z,99.90
2019-03-20T05:40:05.365Z,99.90
2019-03-20T05:42:34.310Z,99.90
2019-03-20T05:45:03.290Z,99.90
2019-03-20T05:47:32.393Z,99.90
2019-03-20T05:50:02.516Z,99.90
2019-03-20T05:52:31.581Z,99.90
2019-03-20T05:55:00.677Z,99.90
2019-03-20T05:57:29.577Z,99.90
2019-03-20T05:59:58.627Z,99.90
2019-03-20T06:02:27.641Z,99.90
2019-03-20T06:04:56.611Z,99.90
2019-03-20T06:07:25.712Z,99.90
2019-03-20T06:12:23.388Z,99.90
2019-03-20T06:14:52.782Z,99.90
2019-03-20T06:17:21.851Z,99.90
2019-03-20T06:19:50.986Z,99.90
2019-03-20T06:22:22.434Z,99.90
2019-03-20T06:24:50.797Z,99.90
2019-03-20T06:27:19.889Z,99.90
2019-03-20T06:29:48.786Z,99.90
2019-03-20T06:32:17.900Z,99.90
2019-03-20T06:34:48.916Z,99.90
2019-03-20T06:37:17.658Z,99.90
2019-03-20T06:39:46.609Z,99.90
2019-03-20T06:42:15.757Z,99.90
2019-03-20T06:47:13.270Z,99.90
2019-03-20T06:49:42.362Z,99.90
2019-03-20T06:54:39.816Z,99.90
2019-03-20T06:57:08.941Z,99.90
2019-03-20T07:00:16.316Z,99.90
2019-03-20T07:02:48.063Z,99.90
2019-03-20T07:05:54.657Z,99.90
2019-03-20T07:08:25.220Z,99.90
2019-03-20T07:11:16.561Z,99.90
2019-03-20T07:16:14.044Z,99.90
2019-03-20T07:18:42.960Z,99.90
2019-03-20T07:21:12.000Z,99.90
2019-03-20T07:23:41.009Z,99.90
2019-03-20T07:26:10.054Z,99.90
2019-03-20T07:28:39.040Z,99.90
2019-03-20T07:31:15.347Z,99.90
2019-03-20T07:33:39.158Z,99.90
2019-03-20T07:36:08.153Z,99.90
2019-03-20T07:38:37.100Z,99.90
2019-03-20T07:41:06.120Z,99.90
2019-03-20T07:46:03.724Z,99.90
2019-03-20T07:48:32.820Z,99.90
2019-03-20T07:51:01.742Z,99.90
2019-03-20T07:53:31.060Z,99.90
2019-03-20T07:55:59.959Z,99.90
2019-03-20T07:58:29.031Z,99.90
2019-03-20T08:00:58.001Z,99.90
2019-03-20T08:05:55.522Z,99.90
2019-03-20T08:08:24.462Z,99.90
2019-03-20T08:10:53.449Z,99.90
2019-03-20T08:13:23.702Z,99.90
2019-03-20T08:15:52.616Z,99.90
2019-03-20T08:18:21.573Z,99.90
2019-03-20T08:20:50.658Z,99.90
2019-03-20T08:25:48.104Z,99.90
2019-03-20T08:28:17.105Z,99.90
2019-03-20T08:30:46.294Z,99.90
2019-03-20T08:35:44.204Z,99.90
2019-03-20T08:38:18.320Z,99.90
2019-03-20T08:40:43.925Z,99.90
2019-03-20T08:43:12.888Z,99.90
2019-03-20T08:45:42.060Z,99.90
2019-03-20T08:48:10.996Z,99.90
2019-03-20T08:50:39.967Z,99.90
2019-03-20T08:53:08.899Z,99.90
2019-03-20T08:55:37.909Z,99.90
2019-03-20T08:58:06.941Z,99.90
2019-03-20T09:00:35.904Z,99.90
2019-03-20T09:03:04.841Z,99.90
2019-03-20T09:05:33.817Z,99.90
2019-03-20T09:08:02.853Z,99.90
2019-03-20T09:10:31.885Z,99.90
2019-03-20T09:13:02.158Z,99.90
2019-03-20T09:15:31.159Z,99.90
2019-03-20T09:18:00.238Z,99.90
2019-03-20T09:20:29.332Z,99.90
2019-03-20T09:22:58.245Z,99.90
2019-03-20T09:25:27.250Z,99.30
2019-03-20T09:27:57.368Z,97.50
2019-03-20T09:30:28.453Z,98.30
2019-03-20T09:32:57.378Z,96.40
2019-03-20T09:35:26.489Z,96.20
2019-03-20T09:40:43.196Z,85.60
2019-03-20T09:43:12.170Z,95.70
2019-03-20T09:45:41.334Z,98.30
2019-03-20T09:48:10.310Z,97.70
2019-03-20T09:50:39.360Z,99.40
2019-03-20T09:53:08.397Z,98.00
2019-03-20T09:55:37.332Z,97.40
2019-03-20T09:58:11.618Z,99.20
2019-03-20T10:05:34.397Z,98.20
2019-03-20T10:08:03.361Z,97.10
2019-03-20T10:10:32.389Z,90.20
2019-03-20T10:13:01.370Z,89.20
2019-03-20T10:17:59.181Z,89.10
2019-03-20T10:20:28.072Z,90.90
2019-03-20T10:22:57.244Z,88.40
2019-03-20T10:25:26.217Z,85.40
2019-03-20T10:27:55.254Z,83.90
2019-03-20T10:30:24.241Z,83.70
2019-03-20T10:32:53.331Z,82.40
2019-03-20T10:35:23.585Z,85.90
2019-03-20T10:37:52.493Z,86.70
2019-03-20T10:40:21.609Z,90.20
2019-03-20T10:42:50.580Z,84.30
2019-03-20T10:45:19.577Z,85.60
2019-03-20T10:47:48.462Z,88.80
2019-03-20T10:50:21.187Z,87.60
2019-03-20T10:52:49.338Z,90.20
2019-03-20T10:55:18.254Z,79.50
2019-03-20T10:57:47.208Z,76.40
2019-03-20T11:00:18.228Z,72.40
2019-03-20T11:02:47.196Z,78.80
2019-03-20T11:07:45.923Z,78.80
2019-03-20T11:10:17.140Z,76.00
2019-03-20T11:12:46.117Z,74.10
2019-03-20T11:15:17.157Z,76.90
2019-03-20T11:17:46.184Z,79.50
2019-03-20T11:20:16.349Z,78.30
2019-03-20T11:22:45.369Z,76.50
2019-03-20T11:25:15.721Z,73.30
2019-03-20T11:27:44.746Z,75.60
2019-03-20T11:30:18.041Z,74.40
2019-03-20T11:32:47.129Z,75.70
2019-03-20T11:40:18.866Z,76.10
2019-03-20T11:42:47.738Z,75.20
2019-03-20T11:45:16.762Z,71.60
2019-03-20T11:47:45.732Z,74.00
2019-03-20T11:50:17.585Z,71.40
2019-03-20T11:52:46.488Z,71.20
2019-03-20T11:55:15.632Z,75.10
2019-03-20T11:57:44.604Z,73.10
2019-03-20T12:00:15.501Z,74.40
2019-03-20T12:02:44.549Z,76.00
2019-03-20T12:05:13.709Z,78.00
2019-03-20T12:07:42.841Z,79.70
2019-03-20T12:10:14.724Z,80.60
2019-03-20T12:12:43.913Z,78.50
2019-03-20T12:15:12.964Z,78.80
2019-03-20T12:17:41.997Z,82.50
2019-03-20T12:20:13.578Z,77.20
2019-03-20T12:22:42.784Z,80.10
2019-03-20T12:25:14.586Z,79.20
2019-03-20T12:27:43.584Z,81.00
2019-03-20T12:30:14.597Z,80.90
2019-03-20T12:32:43.570Z,75.80
2019-03-20T12:35:13.348Z,73.90
2019-03-20T12:37:42.330Z,75.50
2019-03-20T12:40:22.557Z,78.50
2019-03-20T12:42:51.586Z,80.30
2019-03-20T12:45:21.969Z,73.60
2019-03-20T12:47:51.019Z,78.10
2019-03-20T12:50:20.058Z,78.80
2019-03-20T12:52:49.202Z,76.20
2019-03-20T12:55:18.249Z,75.40
2019-03-20T13:00:21.312Z,72.30
2019-03-20T13:02:51.673Z,73.40
2019-03-20T13:05:20.724Z,73.60
2019-03-20T13:07:49.735Z,74.50
2019-03-20T13:10:19.488Z,73.40
2019-03-20T13:12:48.539Z,73.30
2019-03-20T13:15:19.346Z,75.90
2019-03-20T13:17:48.391Z,76.60
2019-03-20T13:20:17.275Z,76.00
2019-03-20T13:25:15.824Z,76.30
2019-03-20T13:27:44.827Z,77.30
2019-03-20T13:30:25.390Z,76.50
2019-03-20T13:32:54.348Z,74.00
2019-03-20T13:35:23.325Z,75.40
2019-03-20T13:37:52.345Z,75.50
2019-03-20T13:40:21.324Z,75.90
2019-03-20T13:42:50.391Z,76.40
2019-03-20T13:47:48.069Z,76.10
2019-03-20T13:52:45.876Z,75.30
2019-03-20T13:55:14.901Z,74.50
2019-03-20T13:57:43.917Z,80.90
2019-03-20T14:00:15.525Z,77.00
2019-03-20T14:02:44.592Z,69.80
2019-03-20T14:05:15.013Z,69.60
2019-03-20T14:07:43.894Z,71.40
2019-03-20T14:10:24.586Z,72.00
2019-03-20T14:12:45.546Z,75.20
2019-03-20T14:15:15.824Z,75.00
2019-03-20T14:17:44.861Z,75.50
2019-03-20T14:20:16.060Z,76.30
2019-03-20T14:22:45.034Z,73.70
2019-03-20T14:25:14.022Z,77.30
2019-03-20T14:27:42.980Z,78.90
2019-03-20T14:30:16.284Z,78.80
2019-03-20T14:32:45.274Z,70.70
2019-03-20T14:35:14.323Z,71.70
2019-03-20T14:37:43.293Z,69.30
2019-03-20T14:40:14.026Z,69.50
2019-03-20T14:42:43.005Z,70.70
2019-03-20T14:45:13.437Z,69.80
2019-03-20T14:47:42.512Z,70.80
2019-03-20T14:50:16.692Z,69.40
2019-03-20T14:52:45.586Z,71.00
2019-03-20T14:55:14.584Z,69.40
2019-03-20T14:57:43.639Z,69.20
2019-03-20T15:00:24.833Z,70.40
2019-03-20T15:02:53.905Z,69.50
2019-03-20T15:05:22.959Z,68.50
2019-03-20T15:10:21.301Z,68.50
2019-03-20T15:12:50.362Z,68.60
2019-03-20T15:15:29.648Z,70.30
2019-03-20T15:17:58.617Z,70.50
2019-03-20T15:20:27.601Z,70.10
2019-03-20T15:25:25.324Z,68.80
2019-03-20T15:27:54.413Z,71.10
2019-03-20T15:30:23.658Z,71.20
2019-03-20T15:32:52.798Z,72.20
2019-03-20T15:35:21.778Z,71.80
2019-03-20T15:37:50.761Z,75.50
2019-03-20T15:40:19.933Z,73.30
2019-03-20T15:42:48.949Z,75.00
2019-03-20T15:45:18.011Z,74.90
2019-03-20T15:50:16.636Z,76.30
2019-03-20T15:52:45.728Z,78.10
2019-03-20T15:55:17.269Z,78.60
2019-03-20T15:57:46.201Z,79.30
2019-03-20T16:00:19.016Z,80.00
2019-03-20T16:02:49.137Z,81.00
2019-03-20T16:05:18.144Z,79.10
2019-03-20T16:10:18.789Z,80.40
2019-03-20T16:12:47.774Z,78.60
2019-03-20T16:15:18.219Z,79.40
2019-03-20T16:20:15.872Z,78.80
2019-03-20T16:22:44.953Z,79.80
2019-03-20T16:25:14.538Z,80.50
2019-03-20T16:27:43.654Z,81.30
2019-03-20T16:30:18.001Z,82.00
2019-03-20T16:35:15.820Z,80.30
2019-03-20T16:37:44.829Z,79.80
2019-03-20T16:40:23.645Z,81.00
2019-03-20T16:42:52.710Z,81.90
2019-03-20T16:45:24.282Z,82.10
2019-03-20T16:47:53.305Z,83.30
2019-03-20T16:50:22.370Z,83.90
2019-03-20T16:52:51.349Z,84.00
2019-03-20T16:55:20.476Z,84.20
2019-03-20T16:57:50.936Z,83.90
2019-03-20T17:00:21.910Z,84.60
2019-03-20T17:02:50.990Z,83.70
2019-03-20T17:07:48.643Z,84.50
2019-03-20T17:10:23.172Z,83.80
2019-03-20T17:12:52.287Z,84.90
2019-03-20T17:15:22.768Z,85.20
2019-03-20T17:17:51.737Z,86.90
2019-03-20T17:20:20.753Z,87.00
2019-03-20T17:22:49.764Z,86.30
2019-03-20T17:27:47.353Z,89.40
2019-03-20T17:30:24.990Z,89.00
2019-03-20T17:32:54.005Z,89.30
2019-03-20T17:35:25.820Z,89.20
2019-03-20T17:37:54.965Z,89.00
2019-03-20T17:40:24.042Z,89.00
2019-03-20T17:42:53.102Z,88.10
2019-03-20T17:45:22.757Z,88.50
2019-03-20T17:47:51.857Z,90.00
2019-03-20T17:50:26.074Z,89.10
2019-03-20T17:52:55.134Z,88.90
2019-03-20T17:55:24.134Z,89.50
2019-03-20T17:57:53.224Z,90.30
2019-03-20T18:00:27.633Z,90.40
2019-03-20T18:02:56.657Z,90.70
2019-03-20T18:05:25.640Z,90.90
2019-03-20T18:07:54.773Z,90.80
2019-03-20T18:10:23.846Z,90.90
2019-03-20T18:12:52.832Z,91.80
2019-03-20T18:15:21.936Z,92.40
2019-03-20T18:17:50.942Z,93.60
2019-03-20T18:20:20.018Z,92.70
2019-03-20T18:27:46.117Z,94.10
2019-03-20T18:30:18.937Z,95.00
2019-03-20T18:35:16.540Z,94.50
2019-03-20T18:37:45.656Z,94.80
2019-03-20T18:40:16.800Z,96.00
2019-03-20T18:42:45.772Z,96.50
2019-03-20T18:45:15.821Z,96.60
2019-03-20T18:50:13.686Z,96.90
2019-03-20T18:55:11.428Z,98.30
2019-03-20T18:57:40.428Z,99.30
2019-03-20T19:00:15.496Z,99.50
2019-03-20T19:05:18.786Z,99.90
2019-03-20T19:10:16.676Z,99.90
2019-03-20T19:12:45.681Z,99.90
2019-03-20T19:17:43.981Z,99.90
2019-03-20T19:20:13.000Z,99.90
2019-03-20T19:25:11.472Z,99.90
2019-03-20T19:27:40.533Z,99.90
2019-03-20T19:30:13.135Z,99.90
2019-03-20T19:35:10.992Z,99.90
2019-03-20T19:37:40.045Z,99.90
2019-03-20T19:40:09.210Z,99.90
2019-03-20T19:47:35.740Z,99.90
2019-03-20T19:52:33.923Z,99.90
2019-03-20T19:55:02.982Z,99.90
2019-03-20T19:57:32.005Z,99.90
2019-03-20T20:00:01.122Z,99.90
2019-03-20T20:02:30.228Z,99.90
2019-03-20T20:07:28.015Z,99.90
2019-03-20T20:09:57.403Z,99.90
2019-03-20T20:12:31.154Z,99.90
2019-03-20T20:14:57.480Z,99.90
2019-03-20T20:17:26.711Z,99.90
2019-03-20T20:19:55.725Z,99.90
2019-03-20T20:22:24.793Z,99.90
2019-03-20T20:24:53.794Z,99.90
2019-03-20T20:27:22.980Z,99.90
2019-03-20T20:29:52.106Z,99.90
2019-03-20T20:32:21.158Z,99.90
2019-03-20T20:34:50.190Z,99.90
2019-03-20T20:37:19.350Z,99.90
2019-03-20T20:42:17.132Z,99.90
2019-03-20T20:44:46.187Z,99.90
2019-03-20T20:49:44.045Z,99.90
2019-03-20T20:52:19.473Z,99.90
2019-03-20T20:54:44.176Z,99.90
2019-03-20T20:57:13.330Z,99.90
2019-03-20T21:02:11.509Z,99.90
2019-03-20T21:04:40.717Z,99.90
2019-03-20T21:07:09.740Z,99.90
2019-03-20T21:09:38.670Z,99.90
2019-03-20T21:12:07.751Z,99.90
2019-03-20T21:14:36.841Z,99.90
2019-03-20T21:17:09.042Z,99.90
2019-03-20T21:19:39.888Z,99.90
2019-03-20T21:22:47.236Z,99.90
2019-03-20T21:25:18.553Z,99.90
2019-03-20T21:28:14.950Z,99.90
2019-03-20T21:30:53.357Z,99.90
2019-03-20T21:33:47.570Z,99.90
2019-03-20T21:36:59.859Z,99.90
2019-03-20T21:39:29.506Z,99.90
2019-03-20T21:45:36.705Z,99.90
2019-03-20T21:48:06.313Z,99.90
2019-03-20T21:51:09.884Z,99.90
2019-03-20T21:54:08.025Z,99.90
2019-03-20T21:56:40.515Z,99.90
2019-03-20T21:59:39.171Z,99.90
2019-03-20T22:04:59.603Z,99.90
2019-03-20T22:10:37.181Z,99.90
2019-03-20T22:13:18.935Z,99.90
2019-03-20T22:16:28.985Z,99.90
2019-03-20T22:19:46.485Z,99.90
2019-03-20T22:22:52.593Z,99.90
2019-03-20T22:30:55.994Z,99.90
2019-03-20T22:34:01.321Z,99.90
2019-03-20T22:36:35.289Z,99.90
2019-03-20T22:39:41.228Z,99.90
2019-03-20T22:42:21.305Z,99.90
2019-03-20T22:45:15.466Z,99.90
2019-03-20T22:53:59.866Z,99.90
2019-03-20T22:59:17.285Z,99.90
2019-03-20T23:02:23.245Z,99.90
2019-03-20T23:04:55.877Z,99.90
2019-03-20T23:07:25.420Z,99.90
2019-03-20T23:09:54.923Z,99.90
2019-03-20T23:12:24.500Z,99.90
2019-03-20T23:14:53.960Z,99.90
2019-03-20T23:19:55.026Z,99.90
2019-03-20T23:22:24.658Z,99.90
2019-03-20T23:24:54.238Z,99.90
2019-03-20T23:27:27.311Z,99.90
2019-03-20T23:29:56.823Z,99.90
2019-03-20T23:32:26.712Z,99.90
2019-03-20T23:34:56.217Z,99.90
2019-03-20T23:37:25.826Z,99.90
2019-03-20T23:39:55.351Z,99.90
2019-03-20T23:42:25.840Z,99.90
2019-03-20T23:44:55.649Z,99.90
2019-03-20T23:47:37.772Z,99.90
2019-03-20T23:50:08.161Z,99.90
2019-03-20T23:52:37.589Z,99.90
2019-03-20T23:55:08.937Z,99.90
2019-03-20T23:57:38.472Z,99.90
